sensor_id;sensor_type;location;lat;lon;timestamp;P1;durP1;ratioP1;P2;durP2;ratioP2
21894;SDS011;11112;51.270;7.224;2023-08-31T00:01:02;6.15;;;2.10;;
21894;SDS011;11112;51.270;7.224;2023-08-31T00:03:30;4.40;;;2.15;;
21894;SDS011;11112;51.270;7.224;2023-08-31T00:06:00;6.95;;;2.17;;
21894;SDS011;11112;51.270;7.224;2023-08-31T00:08:34;6.28;;;2.15;;
21894;SDS011;11112;51.270;7.224;2023-08-31T00:11:01;7.15;;;2.10;;
21894;SDS011;11112;51.270;7.224;2023-08-31T00:13:28;6.07;;;2.22;;
21894;SDS011;11112;51.270;7.224;2023-08-31T00:15:56;7.10;;;2.10;;
21894;SDS011;11112;51.270;7.224;2023-08-31T00:18:27;7.47;;;2.40;;
21894;SDS011;11112;51.270;7.224;2023-08-31T00:20:55;7.88;;;2.42;;
21894;SDS011;11112;51.270;7.224;2023-08-31T00:23:23;7.35;;;2.40;;
21894;SDS011;11112;51.270;7.224;2023-08-31T00:25:53;4.82;;;2.00;;
21894;SDS011;11112;51.270;7.224;2023-08-31T00:28:22;8.20;;;2.63;;
21894;SDS011;11112;51.270;7.224;2023-08-31T00:30:51;8.27;;;2.63;;
21894;SDS011;11112;51.270;7.224;2023-08-31T00:33:18;6.63;;;2.40;;
21894;SDS011;11112;51.270;7.224;2023-08-31T00:35:45;5.57;;;2.30;;
21894;SDS011;11112;51.270;7.224;2023-08-31T00:38:13;8.82;;;2.50;;
21894;SDS011;11112;51.270;7.224;2023-08-31T00:40:40;9.60;;;2.40;;
21894;SDS011;11112;51.270;7.224;2023-08-31T00:43:12;9.63;;;2.40;;
21894;SDS011;11112;51.270;7.224;2023-08-31T00:45:42;6.18;;;2.17;;
21894;SDS011;11112;51.270;7.224;2023-08-31T00:48:11;6.55;;;2.53;;
21894;SDS011;11112;51.270;7.224;2023-08-31T00:50:38;8.13;;;2.38;;
21894;SDS011;11112;51.270;7.224;2023-08-31T00:53:06;5.40;;;2.50;;
21894;SDS011;11112;51.270;7.224;2023-08-31T00:55:33;6.72;;;2.50;;
21894;SDS011;11112;51.270;7.224;2023-08-31T00:58:01;7.82;;;2.50;;
21894;SDS011;11112;51.270;7.224;2023-08-31T01:00:32;6.57;;;2.50;;
21894;SDS011;11112;51.270;7.224;2023-08-31T01:03:09;6.95;;;2.80;;
21894;SDS011;11112;51.270;7.224;2023-08-31T01:05:46;6.55;;;2.65;;
21894;SDS011;11112;51.270;7.224;2023-08-31T01:08:21;6.65;;;2.55;;
21894;SDS011;11112;51.270;7.224;2023-08-31T01:11:07;10.60;;;2.85;;
21894;SDS011;11112;51.270;7.224;2023-08-31T01:13:44;7.93;;;2.70;;
21894;SDS011;11112;51.270;7.224;2023-08-31T01:16:19;9.18;;;2.90;;
21894;SDS011;11112;51.270;7.224;2023-08-31T01:18:50;6.55;;;2.70;;
21894;SDS011;11112;51.270;7.224;2023-08-31T01:21:20;7.50;;;2.97;;
21894;SDS011;11112;51.270;7.224;2023-08-31T01:23:53;7.22;;;2.88;;
21894;SDS011;11112;51.270;7.224;2023-08-31T01:26:24;7.57;;;3.13;;
21894;SDS011;11112;51.270;7.224;2023-08-31T01:28:52;9.18;;;2.70;;
21894;SDS011;11112;51.270;7.224;2023-08-31T01:31:21;8.00;;;2.90;;
21894;SDS011;11112;51.270;7.224;2023-08-31T01:33:49;6.55;;;2.78;;
21894;SDS011;11112;51.270;7.224;2023-08-31T01:36:17;7.78;;;2.88;;
21894;SDS011;11112;51.270;7.224;2023-08-31T01:38:58;7.35;;;2.90;;
21894;SDS011;11112;51.270;7.224;2023-08-31T01:41:33;7.50;;;2.90;;
21894;SDS011;11112;51.270;7.224;2023-08-31T01:44:04;8.60;;;2.58;;
21894;SDS011;11112;51.270;7.224;2023-08-31T01:46:37;6.63;;;2.60;;
21894;SDS011;11112;51.270;7.224;2023-08-31T01:49:05;5.95;;;2.60;;
21894;SDS011;11112;51.270;7.224;2023-08-31T01:51:32;6.15;;;2.58;;
21894;SDS011;11112;51.270;7.224;2023-08-31T01:54:03;5.97;;;2.40;;
21894;SDS011;11112;51.270;7.224;2023-08-31T01:56:30;6.45;;;2.78;;
21894;SDS011;11112;51.270;7.224;2023-08-31T01:58:59;7.05;;;2.60;;
21894;SDS011;11112;51.270;7.224;2023-08-31T02:01:27;5.40;;;2.55;;
21894;SDS011;11112;51.270;7.224;2023-08-31T02:03:54;5.00;;;2.60;;
21894;SDS011;11112;51.270;7.224;2023-08-31T02:06:22;9.70;;;3.10;;
21894;SDS011;11112;51.270;7.224;2023-08-31T02:08:49;9.48;;;2.92;;
21894;SDS011;11112;51.270;7.224;2023-08-31T02:11:18;8.20;;;3.33;;
21894;SDS011;11112;51.270;7.224;2023-08-31T02:13:46;6.90;;;3.25;;
21894;SDS011;11112;51.270;7.224;2023-08-31T02:16:13;6.95;;;3.17;;
21894;SDS011;11112;51.270;7.224;2023-08-31T02:18:40;6.97;;;3.15;;
21894;SDS011;11112;51.270;7.224;2023-08-31T02:21:09;5.78;;;3.00;;
21894;SDS011;11112;51.270;7.224;2023-08-31T02:23:37;5.10;;;2.60;;
21894;SDS011;11112;51.270;7.224;2023-08-31T02:26:04;6.50;;;2.45;;
21894;SDS011;11112;51.270;7.224;2023-08-31T02:28:33;6.53;;;2.35;;
21894;SDS011;11112;51.270;7.224;2023-08-31T02:31:02;4.47;;;2.03;;
21894;SDS011;11112;51.270;7.224;2023-08-31T02:33:31;7.43;;;2.30;;
21894;SDS011;11112;51.270;7.224;2023-08-31T02:35:58;5.68;;;2.15;;
21894;SDS011;11112;51.270;7.224;2023-08-31T02:38:25;6.78;;;2.67;;
21894;SDS011;11112;51.270;7.224;2023-08-31T02:40:52;5.72;;;2.50;;
21894;SDS011;11112;51.270;7.224;2023-08-31T02:43:20;6.03;;;2.78;;
21894;SDS011;11112;51.270;7.224;2023-08-31T02:45:52;7.53;;;2.67;;
21894;SDS011;11112;51.270;7.224;2023-08-31T02:48:26;5.22;;;2.30;;
21894;SDS011;11112;51.270;7.224;2023-08-31T02:50:55;4.65;;;2.30;;
21894;SDS011;11112;51.270;7.224;2023-08-31T02:53:27;6.63;;;2.33;;
21894;SDS011;11112;51.270;7.224;2023-08-31T02:55:56;6.18;;;2.38;;
21894;SDS011;11112;51.270;7.224;2023-08-31T02:58:23;3.78;;;2.13;;
21894;SDS011;11112;51.270;7.224;2023-08-31T03:00:52;7.40;;;2.75;;
21894;SDS011;11112;51.270;7.224;2023-08-31T03:03:20;10.70;;;2.53;;
21894;SDS011;11112;51.270;7.224;2023-08-31T03:05:48;6.22;;;2.40;;
21894;SDS011;11112;51.270;7.224;2023-08-31T03:08:22;7.38;;;2.50;;
21894;SDS011;11112;51.270;7.224;2023-08-31T03:10:51;6.40;;;2.90;;
21894;SDS011;11112;51.270;7.224;2023-08-31T03:13:18;6.70;;;3.20;;
21894;SDS011;11112;51.270;7.224;2023-08-31T03:15:46;6.82;;;3.40;;
21894;SDS011;11112;51.270;7.224;2023-08-31T03:18:14;8.07;;;3.28;;
21894;SDS011;11112;51.270;7.224;2023-08-31T03:20:42;6.53;;;3.30;;
21894;SDS011;11112;51.270;7.224;2023-08-31T03:23:09;8.43;;;3.90;;
21894;SDS011;11112;51.270;7.224;2023-08-31T03:25:36;8.00;;;3.83;;
21894;SDS011;11112;51.270;7.224;2023-08-31T03:28:04;9.30;;;3.92;;
21894;SDS011;11112;51.270;7.224;2023-08-31T03:30:32;7.75;;;3.90;;
21894;SDS011;11112;51.270;7.224;2023-08-31T03:32:59;6.75;;;4.05;;
21894;SDS011;11112;51.270;7.224;2023-08-31T03:35:29;6.70;;;3.90;;
21894;SDS011;11112;51.270;7.224;2023-08-31T03:37:57;6.00;;;4.50;;
21894;SDS011;11112;51.270;7.224;2023-08-31T03:40:25;7.63;;;5.10;;
21894;SDS011;11112;51.270;7.224;2023-08-31T03:42:52;8.77;;;4.47;;
21894;SDS011;11112;51.270;7.224;2023-08-31T03:45:22;6.90;;;4.50;;
21894;SDS011;11112;51.270;7.224;2023-08-31T03:47:49;6.65;;;4.28;;
21894;SDS011;11112;51.270;7.224;2023-08-31T03:50:16;7.00;;;4.35;;
21894;SDS011;11112;51.270;7.224;2023-08-31T03:52:46;7.07;;;4.47;;
21894;SDS011;11112;51.270;7.224;2023-08-31T03:55:15;5.82;;;4.05;;
21894;SDS011;11112;51.270;7.224;2023-08-31T03:57:43;6.80;;;4.45;;
21894;SDS011;11112;51.270;7.224;2023-08-31T04:00:11;9.52;;;5.00;;
21894;SDS011;11112;51.270;7.224;2023-08-31T04:02:41;6.40;;;4.38;;
21894;SDS011;11112;51.270;7.224;2023-08-31T04:05:09;8.60;;;5.03;;
21894;SDS011;11112;51.270;7.224;2023-08-31T04:07:36;8.32;;;5.32;;
21894;SDS011;11112;51.270;7.224;2023-08-31T04:10:06;7.70;;;5.32;;
21894;SDS011;11112;51.270;7.224;2023-08-31T04:12:34;8.95;;;5.55;;
21894;SDS011;11112;51.270;7.224;2023-08-31T04:15:03;7.65;;;5.70;;
21894;SDS011;11112;51.270;7.224;2023-08-31T04:17:32;9.57;;;5.47;;
21894;SDS011;11112;51.270;7.224;2023-08-31T04:19:59;9.45;;;5.75;;
21894;SDS011;11112;51.270;7.224;2023-08-31T04:22:26;11.02;;;6.95;;
21894;SDS011;11112;51.270;7.224;2023-08-31T04:24:54;8.60;;;6.28;;
21894;SDS011;11112;51.270;7.224;2023-08-31T04:27:26;9.55;;;6.78;;
21894;SDS011;11112;51.270;7.224;2023-08-31T04:29:56;11.32;;;6.90;;
21894;SDS011;11112;51.270;7.224;2023-08-31T04:32:23;10.75;;;6.70;;
21894;SDS011;11112;51.270;7.224;2023-08-31T04:34:51;11.15;;;7.45;;
21894;SDS011;11112;51.270;7.224;2023-08-31T04:37:20;13.68;;;7.97;;
21894;SDS011;11112;51.270;7.224;2023-08-31T04:39:48;11.25;;;8.43;;
21894;SDS011;11112;51.270;7.224;2023-08-31T04:42:16;15.38;;;8.57;;
21894;SDS011;11112;51.270;7.224;2023-08-31T04:44:46;10.50;;;7.68;;
21894;SDS011;11112;51.270;7.224;2023-08-31T04:47:13;13.75;;;8.75;;
21894;SDS011;11112;51.270;7.224;2023-08-31T04:49:41;12.40;;;8.90;;
21894;SDS011;11112;51.270;7.224;2023-08-31T04:52:08;14.02;;;8.90;;
21894;SDS011;11112;51.270;7.224;2023-08-31T04:54:36;15.63;;;8.95;;
21894;SDS011;11112;51.270;7.224;2023-08-31T04:57:05;14.43;;;9.15;;
21894;SDS011;11112;51.270;7.224;2023-08-31T04:59:32;15.38;;;9.30;;
21894;SDS011;11112;51.270;7.224;2023-08-31T05:02:01;12.52;;;9.48;;
21894;SDS011;11112;51.270;7.224;2023-08-31T05:04:29;14.82;;;9.30;;
21894;SDS011;11112;51.270;7.224;2023-08-31T05:06:57;12.85;;;9.57;;
21894;SDS011;11112;51.270;7.224;2023-08-31T05:09:24;14.55;;;9.40;;
21894;SDS011;11112;51.270;7.224;2023-08-31T05:11:57;13.05;;;9.18;;
21894;SDS011;11112;51.270;7.224;2023-08-31T05:14:25;13.07;;;9.07;;
21894;SDS011;11112;51.270;7.224;2023-08-31T05:16:53;16.17;;;9.23;;
21894;SDS011;11112;51.270;7.224;2023-08-31T05:19:23;14.23;;;9.23;;
21894;SDS011;11112;51.270;7.224;2023-08-31T05:21:50;15.18;;;9.10;;
21894;SDS011;11112;51.270;7.224;2023-08-31T05:24:18;13.88;;;8.77;;
21894;SDS011;11112;51.270;7.224;2023-08-31T05:26:46;15.73;;;9.32;;
21894;SDS011;11112;51.270;7.224;2023-08-31T05:29:13;11.93;;;8.88;;
21894;SDS011;11112;51.270;7.224;2023-08-31T05:31:40;11.57;;;9.02;;
21894;SDS011;11112;51.270;7.224;2023-08-31T05:34:09;13.45;;;9.52;;
21894;SDS011;11112;51.270;7.224;2023-08-31T05:36:38;13.40;;;9.30;;
21894;SDS011;11112;51.270;7.224;2023-08-31T05:39:05;11.55;;;9.40;;
21894;SDS011;11112;51.270;7.224;2023-08-31T05:41:34;12.40;;;8.88;;
21894;SDS011;11112;51.270;7.224;2023-08-31T05:44:02;11.88;;;8.80;;
21894;SDS011;11112;51.270;7.224;2023-08-31T05:46:29;11.45;;;7.97;;
21894;SDS011;11112;51.270;7.224;2023-08-31T05:48:57;12.35;;;8.25;;
21894;SDS011;11112;51.270;7.224;2023-08-31T05:51:24;10.90;;;8.10;;
21894;SDS011;11112;51.270;7.224;2023-08-31T05:53:53;12.65;;;7.65;;
21894;SDS011;11112;51.270;7.224;2023-08-31T05:56:21;11.65;;;7.45;;
21894;SDS011;11112;51.270;7.224;2023-08-31T05:58:48;9.77;;;6.90;;
21894;SDS011;11112;51.270;7.224;2023-08-31T06:01:16;11.20;;;6.78;;
21894;SDS011;11112;51.270;7.224;2023-08-31T06:03:43;8.95;;;6.35;;
21894;SDS011;11112;51.270;7.224;2023-08-31T06:06:10;11.15;;;6.65;;
21894;SDS011;11112;51.270;7.224;2023-08-31T06:08:37;11.05;;;6.15;;
21894;SDS011;11112;51.270;7.224;2023-08-31T06:11:09;7.80;;;5.88;;
21894;SDS011;11112;51.270;7.224;2023-08-31T06:13:38;9.70;;;6.40;;
21894;SDS011;11112;51.270;7.224;2023-08-31T06:16:06;9.77;;;6.88;;
21894;SDS011;11112;51.270;7.224;2023-08-31T06:18:33;9.40;;;6.20;;
21894;SDS011;11112;51.270;7.224;2023-08-31T06:21:00;10.10;;;6.10;;
21894;SDS011;11112;51.270;7.224;2023-08-31T06:23:31;9.82;;;5.95;;
21894;SDS011;11112;51.270;7.224;2023-08-31T06:25:58;8.15;;;5.72;;
21894;SDS011;11112;51.270;7.224;2023-08-31T06:28:28;7.72;;;5.68;;
21894;SDS011;11112;51.270;7.224;2023-08-31T06:30:55;7.20;;;5.57;;
21894;SDS011;11112;51.270;7.224;2023-08-31T06:33:22;9.70;;;5.75;;
21894;SDS011;11112;51.270;7.224;2023-08-31T06:35:51;9.05;;;5.78;;
21894;SDS011;11112;51.270;7.224;2023-08-31T06:38:19;10.38;;;5.53;;
21894;SDS011;11112;51.270;7.224;2023-08-31T06:40:47;7.07;;;5.05;;
21894;SDS011;11112;51.270;7.224;2023-08-31T06:43:14;9.18;;;5.20;;
21894;SDS011;11112;51.270;7.224;2023-08-31T06:45:44;7.95;;;4.65;;
21894;SDS011;11112;51.270;7.224;2023-08-31T06:48:11;11.13;;;5.30;;
21894;SDS011;11112;51.270;7.224;2023-08-31T06:50:39;9.10;;;4.97;;
21894;SDS011;11112;51.270;7.224;2023-08-31T06:53:07;9.57;;;5.05;;
21894;SDS011;11112;51.270;7.224;2023-08-31T06:55:34;8.20;;;4.70;;
21894;SDS011;11112;51.270;7.224;2023-08-31T06:58:01;8.43;;;5.32;;
21894;SDS011;11112;51.270;7.224;2023-08-31T07:00:29;10.07;;;5.30;;
21894;SDS011;11112;51.270;7.224;2023-08-31T07:02:59;7.85;;;5.10;;
21894;SDS011;11112;51.270;7.224;2023-08-31T07:05:27;9.20;;;5.10;;
21894;SDS011;11112;51.270;7.224;2023-08-31T07:07:55;8.52;;;4.88;;
21894;SDS011;11112;51.270;7.224;2023-08-31T07:10:23;10.95;;;4.97;;
21894;SDS011;11112;51.270;7.224;2023-08-31T07:12:50;8.88;;;4.70;;
21894;SDS011;11112;51.270;7.224;2023-08-31T07:15:19;10.20;;;4.65;;
21894;SDS011;11112;51.270;7.224;2023-08-31T07:17:46;8.45;;;4.30;;
21894;SDS011;11112;51.270;7.224;2023-08-31T07:20:17;7.13;;;3.97;;
21894;SDS011;11112;51.270;7.224;2023-08-31T07:22:44;8.52;;;4.30;;
21894;SDS011;11112;51.270;7.224;2023-08-31T07:25:12;10.48;;;4.22;;
21894;SDS011;11112;51.270;7.224;2023-08-31T07:27:41;8.27;;;3.70;;
21894;SDS011;11112;51.270;7.224;2023-08-31T07:30:09;7.53;;;4.32;;
21894;SDS011;11112;51.270;7.224;2023-08-31T07:32:37;8.68;;;4.35;;
21894;SDS011;11112;51.270;7.224;2023-08-31T07:35:04;8.18;;;3.67;;
21894;SDS011;11112;51.270;7.224;2023-08-31T07:37:33;6.10;;;3.50;;
21894;SDS011;11112;51.270;7.224;2023-08-31T07:40:02;6.70;;;3.92;;
21894;SDS011;11112;51.270;7.224;2023-08-31T07:42:34;6.88;;;3.50;;
21894;SDS011;11112;51.270;7.224;2023-08-31T07:45:03;5.60;;;3.60;;
21894;SDS011;11112;51.270;7.224;2023-08-31T07:47:33;8.13;;;4.00;;
21894;SDS011;11112;51.270;7.224;2023-08-31T07:50:01;6.82;;;3.30;;
21894;SDS011;11112;51.270;7.224;2023-08-31T07:52:30;5.45;;;3.50;;
21894;SDS011;11112;51.270;7.224;2023-08-31T07:55:00;7.25;;;3.38;;
21894;SDS011;11112;51.270;7.224;2023-08-31T07:57:29;5.22;;;2.83;;
21894;SDS011;11112;51.270;7.224;2023-08-31T07:59:56;6.07;;;3.15;;
21894;SDS011;11112;51.270;7.224;2023-08-31T08:02:24;6.43;;;3.30;;
21894;SDS011;11112;51.270;7.224;2023-08-31T08:04:51;6.38;;;3.03;;
21894;SDS011;11112;51.270;7.224;2023-08-31T08:07:18;8.82;;;3.30;;
21894;SDS011;11112;51.270;7.224;2023-08-31T08:09:47;7.07;;;2.78;;
21894;SDS011;11112;51.270;7.224;2023-08-31T08:12:16;6.45;;;2.70;;
21894;SDS011;11112;51.270;7.224;2023-08-31T08:14:43;5.63;;;2.80;;
21894;SDS011;11112;51.270;7.224;2023-08-31T08:17:10;16.58;;;2.80;;
21894;SDS011;11112;51.270;7.224;2023-08-31T08:19:39;6.18;;;2.70;;
21894;SDS011;11112;51.270;7.224;2023-08-31T08:22:06;10.02;;;2.50;;
21894;SDS011;11112;51.270;7.224;2023-08-31T08:24:33;6.40;;;2.55;;
21894;SDS011;11112;51.270;7.224;2023-08-31T08:27:01;9.32;;;2.85;;
21894;SDS011;11112;51.270;7.224;2023-08-31T08:29:29;4.60;;;2.30;;
21894;SDS011;11112;51.270;7.224;2023-08-31T08:31:59;6.32;;;2.03;;
21894;SDS011;11112;51.270;7.224;2023-08-31T08:34:26;6.38;;;2.10;;
21894;SDS011;11112;51.270;7.224;2023-08-31T08:36:53;5.53;;;1.83;;
21894;SDS011;11112;51.270;7.224;2023-08-31T08:39:20;3.72;;;1.60;;
21894;SDS011;11112;51.270;7.224;2023-08-31T08:41:48;6.57;;;2.00;;
21894;SDS011;11112;51.270;7.224;2023-08-31T08:44:17;6.93;;;2.00;;
21894;SDS011;11112;51.270;7.224;2023-08-31T08:46:50;6.32;;;1.98;;
21894;SDS011;11112;51.270;7.224;2023-08-31T08:49:18;4.10;;;1.80;;
21894;SDS011;11112;51.270;7.224;2023-08-31T08:51:46;6.63;;;1.98;;
21894;SDS011;11112;51.270;7.224;2023-08-31T08:54:13;5.72;;;1.70;;
21894;SDS011;11112;51.270;7.224;2023-08-31T08:56:40;6.82;;;1.95;;
21894;SDS011;11112;51.270;7.224;2023-08-31T08:59:07;4.85;;;1.60;;
21894;SDS011;11112;51.270;7.224;2023-08-31T09:01:37;3.90;;;1.95;;
21894;SDS011;11112;51.270;7.224;2023-08-31T09:04:09;5.20;;;1.77;;
21894;SDS011;11112;51.270;7.224;2023-08-31T09:06:36;5.15;;;1.70;;
21894;SDS011;11112;51.270;7.224;2023-08-31T09:09:03;4.65;;;1.60;;
21894;SDS011;11112;51.270;7.224;2023-08-31T09:11:31;6.13;;;1.70;;
21894;SDS011;11112;51.270;7.224;2023-08-31T09:13:58;3.80;;;1.80;;
21894;SDS011;11112;51.270;7.224;2023-08-31T09:16:26;4.75;;;2.10;;
21894;SDS011;11112;51.270;7.224;2023-08-31T09:18:55;4.43;;;1.70;;
21894;SDS011;11112;51.270;7.224;2023-08-31T09:21:24;6.72;;;1.67;;
21894;SDS011;11112;51.270;7.224;2023-08-31T09:24:02;6.50;;;1.75;;
21894;SDS011;11112;51.270;7.224;2023-08-31T09:29:08;3.92;;;1.63;;
21894;SDS011;11112;51.270;7.224;2023-08-31T09:31:36;6.28;;;1.95;;
21894;SDS011;11112;51.270;7.224;2023-08-31T09:34:03;3.67;;;1.50;;
21894;SDS011;11112;51.270;7.224;2023-08-31T09:36:32;5.07;;;1.60;;
21894;SDS011;11112;51.270;7.224;2023-08-31T09:38:59;3.47;;;1.30;;
21894;SDS011;11112;51.270;7.224;2023-08-31T09:41:26;6.00;;;1.55;;
21894;SDS011;11112;51.270;7.224;2023-08-31T09:43:53;4.55;;;1.55;;
21894;SDS011;11112;51.270;7.224;2023-08-31T09:46:20;3.13;;;1.40;;
21894;SDS011;11112;51.270;7.224;2023-08-31T09:48:48;4.03;;;1.30;;
21894;SDS011;11112;51.270;7.224;2023-08-31T09:51:15;5.07;;;1.48;;
21894;SDS011;11112;51.270;7.224;2023-08-31T09:53:49;3.13;;;1.45;;
21894;SDS011;11112;51.270;7.224;2023-08-31T09:56:20;5.53;;;1.60;;
21894;SDS011;11112;51.270;7.224;2023-08-31T09:58:49;5.90;;;1.40;;
21894;SDS011;11112;51.270;7.224;2023-08-31T10:01:17;6.00;;;1.52;;
21894;SDS011;11112;51.270;7.224;2023-08-31T10:03:44;3.78;;;1.35;;
21894;SDS011;11112;51.270;7.224;2023-08-31T10:06:11;4.28;;;1.45;;
21894;SDS011;11112;51.270;7.224;2023-08-31T10:08:38;3.53;;;1.30;;
21894;SDS011;11112;51.270;7.224;2023-08-31T10:11:08;4.43;;;1.10;;
21894;SDS011;11112;51.270;7.224;2023-08-31T10:13:39;3.38;;;1.20;;
21894;SDS011;11112;51.270;7.224;2023-08-31T10:16:07;4.28;;;1.42;;
21894;SDS011;11112;51.270;7.224;2023-08-31T10:18:35;2.97;;;1.20;;
21894;SDS011;11112;51.270;7.224;2023-08-31T10:21:02;4.70;;;1.20;;
21894;SDS011;11112;51.270;7.224;2023-08-31T10:23:30;3.92;;;1.40;;
21894;SDS011;11112;51.270;7.224;2023-08-31T10:26:04;5.40;;;1.20;;
21894;SDS011;11112;51.270;7.224;2023-08-31T10:28:38;4.07;;;1.40;;
21894;SDS011;11112;51.270;7.224;2023-08-31T10:31:08;4.75;;;1.23;;
21894;SDS011;11112;51.270;7.224;2023-08-31T10:33:40;2.75;;;1.15;;
21894;SDS011;11112;51.270;7.224;2023-08-31T10:36:09;3.25;;;1.20;;
21894;SDS011;11112;51.270;7.224;2023-08-31T10:38:39;4.68;;;1.23;;
21894;SDS011;11112;51.270;7.224;2023-08-31T10:41:18;7.28;;;1.60;;
21894;SDS011;11112;51.270;7.224;2023-08-31T10:43:53;2.53;;;1.00;;
21894;SDS011;11112;51.270;7.224;2023-08-31T10:46:26;6.50;;;1.30;;
21894;SDS011;11112;51.270;7.224;2023-08-31T10:48:58;3.90;;;1.40;;
21894;SDS011;11112;51.270;7.224;2023-08-31T10:51:28;4.03;;;1.25;;
21894;SDS011;11112;51.270;7.224;2023-08-31T10:54:07;7.00;;;1.58;;
21894;SDS011;11112;51.270;7.224;2023-08-31T10:56:52;5.75;;;1.50;;
21894;SDS011;11112;51.270;7.224;2023-08-31T10:59:45;4.13;;;1.30;;
21894;SDS011;11112;51.270;7.224;2023-08-31T11:02:29;5.35;;;1.35;;
21894;SDS011;11112;51.270;7.224;2023-08-31T11:05:00;4.22;;;1.35;;
21894;SDS011;11112;51.270;7.224;2023-08-31T11:07:31;4.93;;;1.60;;
21894;SDS011;11112;51.270;7.224;2023-08-31T11:10:16;6.43;;;1.73;;
21894;SDS011;11112;51.270;7.224;2023-08-31T11:12:45;4.53;;;1.60;;
21894;SDS011;11112;51.270;7.224;2023-08-31T11:15:16;4.40;;;1.50;;
21894;SDS011;11112;51.270;7.224;2023-08-31T11:17:44;4.45;;;1.40;;
21894;SDS011;11112;51.270;7.224;2023-08-31T11:20:15;6.50;;;1.70;;
21894;SDS011;11112;51.270;7.224;2023-08-31T11:22:45;5.72;;;1.50;;
21894;SDS011;11112;51.270;7.224;2023-08-31T11:25:15;6.93;;;1.60;;
21894;SDS011;11112;51.270;7.224;2023-08-31T11:27:52;4.40;;;1.58;;
21894;SDS011;11112;51.270;7.224;2023-08-31T11:30:22;5.57;;;1.85;;
21894;SDS011;11112;51.270;7.224;2023-08-31T11:32:51;5.00;;;1.77;;
21894;SDS011;11112;51.270;7.224;2023-08-31T11:35:19;6.63;;;2.03;;
21894;SDS011;11112;51.270;7.224;2023-08-31T11:37:49;4.80;;;1.60;;
21894;SDS011;11112;51.270;7.224;2023-08-31T11:40:17;5.70;;;2.03;;
21894;SDS011;11112;51.270;7.224;2023-08-31T11:42:45;5.15;;;1.70;;
21894;SDS011;11112;51.270;7.224;2023-08-31T11:45:16;6.07;;;1.67;;
21894;SDS011;11112;51.270;7.224;2023-08-31T11:47:46;7.20;;;1.77;;
21894;SDS011;11112;51.270;7.224;2023-08-31T11:50:14;6.25;;;1.67;;
21894;SDS011;11112;51.270;7.224;2023-08-31T11:52:47;4.75;;;1.48;;
21894;SDS011;11112;51.270;7.224;2023-08-31T11:55:16;4.82;;;1.60;;
21894;SDS011;11112;51.270;7.224;2023-08-31T11:57:47;6.18;;;1.50;;
21894;SDS011;11112;51.270;7.224;2023-08-31T12:00:16;4.20;;;1.37;;
21894;SDS011;11112;51.270;7.224;2023-08-31T12:02:46;4.60;;;1.30;;
21894;SDS011;11112;51.270;7.224;2023-08-31T12:05:23;5.25;;;1.60;;
21894;SDS011;11112;51.270;7.224;2023-08-31T12:07:50;6.43;;;1.48;;
21894;SDS011;11112;51.270;7.224;2023-08-31T12:10:20;5.50;;;1.65;;
21894;SDS011;11112;51.270;7.224;2023-08-31T12:12:50;7.82;;;1.58;;
21894;SDS011;11112;51.270;7.224;2023-08-31T12:15:18;5.13;;;1.33;;
21894;SDS011;11112;51.270;7.224;2023-08-31T12:17:49;3.53;;;1.17;;
21894;SDS011;11112;51.270;7.224;2023-08-31T12:20:24;5.38;;;1.30;;
21894;SDS011;11112;51.270;7.224;2023-08-31T12:22:51;4.93;;;1.30;;
21894;SDS011;11112;51.270;7.224;2023-08-31T12:25:19;5.75;;;1.55;;
21894;SDS011;11112;51.270;7.224;2023-08-31T12:27:47;7.05;;;1.73;;
21894;SDS011;11112;51.270;7.224;2023-08-31T12:30:15;4.22;;;1.33;;
21894;SDS011;11112;51.270;7.224;2023-08-31T12:32:42;4.28;;;1.27;;
21894;SDS011;11112;51.270;7.224;2023-08-31T12:35:10;5.47;;;1.40;;
21894;SDS011;11112;51.270;7.224;2023-08-31T12:37:39;5.50;;;1.70;;
21894;SDS011;11112;51.270;7.224;2023-08-31T12:40:10;4.43;;;1.80;;
21894;SDS011;11112;51.270;7.224;2023-08-31T12:42:37;4.53;;;1.58;;
21894;SDS011;11112;51.270;7.224;2023-08-31T12:45:04;3.83;;;1.63;;
21894;SDS011;11112;51.270;7.224;2023-08-31T12:47:34;4.07;;;1.50;;
21894;SDS011;11112;51.270;7.224;2023-08-31T12:50:01;4.10;;;1.60;;
21894;SDS011;11112;51.270;7.224;2023-08-31T12:52:30;4.55;;;1.50;;
21894;SDS011;11112;51.270;7.224;2023-08-31T12:54:57;3.20;;;1.35;;
21894;SDS011;11112;51.270;7.224;2023-08-31T12:57:24;6.63;;;1.30;;
21894;SDS011;11112;51.270;7.224;2023-08-31T12:59:51;3.83;;;1.40;;
21894;SDS011;11112;51.270;7.224;2023-08-31T13:02:18;4.32;;;1.50;;
21894;SDS011;11112;51.270;7.224;2023-08-31T13:04:45;4.70;;;1.60;;
21894;SDS011;11112;51.270;7.224;2023-08-31T13:07:12;4.15;;;1.20;;
21894;SDS011;11112;51.270;7.224;2023-08-31T13:09:41;3.40;;;1.27;;
21894;SDS011;11112;51.270;7.224;2023-08-31T13:12:08;3.28;;;1.50;;
21894;SDS011;11112;51.270;7.224;2023-08-31T13:14:35;4.78;;;1.52;;
21894;SDS011;11112;51.270;7.224;2023-08-31T13:17:02;3.67;;;1.45;;
21894;SDS011;11112;51.270;7.224;2023-08-31T13:19:31;4.50;;;1.30;;
21894;SDS011;11112;51.270;7.224;2023-08-31T13:21:58;3.67;;;1.38;;
21894;SDS011;11112;51.270;7.224;2023-08-31T13:24:25;4.95;;;1.27;;
21894;SDS011;11112;51.270;7.224;2023-08-31T13:26:53;5.05;;;1.40;;
21894;SDS011;11112;51.270;7.224;2023-08-31T13:29:21;6.57;;;1.90;;
21894;SDS011;11112;51.270;7.224;2023-08-31T13:31:47;4.65;;;1.60;;
21894;SDS011;11112;51.270;7.224;2023-08-31T13:34:15;4.47;;;1.70;;
21894;SDS011;11112;51.270;7.224;2023-08-31T13:36:43;4.10;;;1.80;;
21894;SDS011;11112;51.270;7.224;2023-08-31T13:39:11;5.55;;;1.80;;
21894;SDS011;11112;51.270;7.224;2023-08-31T13:41:38;6.22;;;1.88;;
21894;SDS011;11112;51.270;7.224;2023-08-31T13:44:07;7.00;;;1.73;;
21894;SDS011;11112;51.270;7.224;2023-08-31T13:46:34;6.30;;;1.80;;
21894;SDS011;11112;51.270;7.224;2023-08-31T13:49:01;6.97;;;1.90;;
21894;SDS011;11112;51.270;7.224;2023-08-31T13:51:28;4.93;;;1.67;;
21894;SDS011;11112;51.270;7.224;2023-08-31T13:53:55;4.32;;;1.67;;
21894;SDS011;11112;51.270;7.224;2023-08-31T13:56:22;5.25;;;1.95;;
21894;SDS011;11112;51.270;7.224;2023-08-31T13:58:49;6.72;;;2.13;;
21894;SDS011;11112;51.270;7.224;2023-08-31T14:01:18;7.32;;;2.03;;
21894;SDS011;11112;51.270;7.224;2023-08-31T14:03:45;7.85;;;1.85;;
21894;SDS011;11112;51.270;7.224;2023-08-31T14:06:12;5.97;;;1.80;;
21894;SDS011;11112;51.270;7.224;2023-08-31T14:08:40;7.00;;;1.80;;
21894;SDS011;11112;51.270;7.224;2023-08-31T14:11:07;4.13;;;1.67;;
21894;SDS011;11112;51.270;7.224;2023-08-31T14:13:34;6.07;;;1.85;;
21894;SDS011;11112;51.270;7.224;2023-08-31T14:16:01;6.15;;;1.70;;
21894;SDS011;11112;51.270;7.224;2023-08-31T14:18:30;5.30;;;1.90;;
21894;SDS011;11112;51.270;7.224;2023-08-31T14:20:57;6.90;;;1.77;;
21894;SDS011;11112;51.270;7.224;2023-08-31T14:23:26;8.88;;;1.90;;
21894;SDS011;11112;51.270;7.224;2023-08-31T14:25:53;7.20;;;1.60;;
21894;SDS011;11112;51.270;7.224;2023-08-31T14:28:20;5.47;;;1.60;;
21894;SDS011;11112;51.270;7.224;2023-08-31T14:30:47;6.35;;;1.80;;
21894;SDS011;11112;51.270;7.224;2023-08-31T14:33:14;5.18;;;1.40;;
21894;SDS011;11112;51.270;7.224;2023-08-31T14:35:42;3.65;;;1.40;;
21894;SDS011;11112;51.270;7.224;2023-08-31T14:38:10;5.25;;;1.73;;
21894;SDS011;11112;51.270;7.224;2023-08-31T14:40:38;4.18;;;1.48;;
21894;SDS011;11112;51.270;7.224;2023-08-31T14:43:06;6.35;;;1.98;;
21894;SDS011;11112;51.270;7.224;2023-08-31T14:45:33;5.57;;;1.70;;
21894;SDS011;11112;51.270;7.224;2023-08-31T14:48:00;6.55;;;1.70;;
21894;SDS011;11112;51.270;7.224;2023-08-31T14:50:28;7.55;;;1.63;;
21894;SDS011;11112;51.270;7.224;2023-08-31T14:52:56;4.20;;;1.60;;
21894;SDS011;11112;51.270;7.224;2023-08-31T14:55:24;5.28;;;1.95;;
21894;SDS011;11112;51.270;7.224;2023-08-31T14:57:52;5.88;;;1.85;;